createdAt,value
2022-10-03T00:02:39.597Z,98785.63
2022-10-03T00:05:10.797Z,98788.69
2022-10-03T00:07:55.539Z,98790.64
2022-10-03T00:10:48.175Z,98784.85
2022-10-03T00:13:19.270Z,98790.84
2022-10-03T00:16:06.600Z,98791.34
2022-10-03T00:19:07.326Z,98788.66
2022-10-03T00:21:51.049Z,98795.48
2022-10-03T00:24:35.045Z,98794.17
2022-10-03T00:27:17.758Z,98794.77
2022-10-03T00:30:13.642Z,98793.84
2022-10-03T00:32:47.244Z,98791.98
2022-10-03T00:35:21.440Z,98791.89
2022-10-03T00:38:24.114Z,98795.25
2022-10-03T00:41:12.946Z,98796.02
2022-10-03T00:44:03.152Z,98794.48
2022-10-03T00:46:49.764Z,98792.81
2022-10-03T00:49:43.058Z,98787.38
2022-10-03T00:52:29.660Z,98786.88
2022-10-03T00:55:04.064Z,98787.67
2022-10-03T00:58:14.074Z,98791.56
2022-10-03T01:00:50.919Z,98787.43
2022-10-03T01:03:27.968Z,98791.25
2022-10-03T01:06:21.458Z,98790.67
2022-10-03T01:09:07.100Z,98787.84
2022-10-03T01:12:00.467Z,98784.21
2022-10-03T01:14:45.885Z,98779.95
2022-10-03T01:17:37.996Z,98776.63
2022-10-03T01:20:28.958Z,98778.25
2022-10-03T01:23:33.052Z,98778.55
2022-10-03T01:26:25.413Z,98775.05
2022-10-03T01:29:33.936Z,98765.99
2022-10-03T01:32:15.775Z,98767.46
2022-10-03T01:35:08.091Z,98777.66
2022-10-03T01:37:36.258Z,98778.69
2022-10-03T01:40:36.826Z,98778.42
2022-10-03T01:43:23.391Z,98774.65
2022-10-03T01:46:18.440Z,98775.61
2022-10-03T01:49:07.347Z,98779.30
2022-10-03T01:51:48.269Z,98777.45
2022-10-03T01:54:31.549Z,98771.70
2022-10-03T01:57:29.567Z,98776.36
2022-10-03T02:00:05.891Z,98783.27
2022-10-03T02:02:53.282Z,98783.14
2022-10-03T02:05:55.413Z,98786.14
2022-10-03T02:08:35.459Z,98782.61
2022-10-03T02:11:10.175Z,98780.11
2022-10-03T02:13:53.087Z,98779.03
2022-10-03T02:16:49.085Z,98784.16
2022-10-03T02:19:29.741Z,98781.45
2022-10-03T02:22:00.920Z,98769.19
2022-10-03T02:24:42.657Z,98767.96
2022-10-03T02:27:42.891Z,98766.60
2022-10-03T02:30:20.235Z,98768.48
2022-10-03T02:33:06.963Z,98770.64
2022-10-03T02:35:50.409Z,98771.94
2022-10-03T02:38:26.331Z,98772.61
2022-10-03T02:41:09.626Z,98768.60
2022-10-03T02:43:56.240Z,98769.21
2022-10-03T02:46:59.999Z,98762.67
2022-10-03T02:50:11.147Z,98763.73
2022-10-03T02:52:54.412Z,98770.27
2022-10-03T02:55:41.525Z,98772.33
2022-10-03T02:58:23.074Z,98769.98
2022-10-03T03:01:29.303Z,98765.98
2022-10-03T03:04:27.383Z,98766.59
2022-10-03T03:07:43.137Z,98766.98
2022-10-03T03:10:59.626Z,98766.33
2022-10-03T03:13:36.969Z,98769.04
2022-10-03T03:16:25.310Z,98769.69
2022-10-03T03:18:59.344Z,98771.05
2022-10-03T03:21:52.557Z,98766.83
2022-10-03T03:24:29.759Z,98762.63
2022-10-03T03:27:04.194Z,98761.82
2022-10-03T03:29:39.973Z,98757.71
2022-10-03T03:32:40.225Z,98755.31
2022-10-03T03:35:27.842Z,98758.98
2022-10-03T03:38:36.275Z,98760.63
2022-10-03T03:41:13.414Z,98758.44
2022-10-03T03:43:59.634Z,98755.21
2022-10-03T03:46:40.164Z,98754.48
2022-10-03T03:49:14.207Z,98758.66
2022-10-03T03:51:55.013Z,98760.59
2022-10-03T03:54:26.536Z,98758.80
2022-10-03T03:57:19.260Z,98756.06
2022-10-03T03:59:47.514Z,98753.80
2022-10-03T04:02:27.245Z,98757.36
2022-10-03T04:05:19.951Z,98752.61
2022-10-03T04:08:18.885Z,98752.30
2022-10-03T04:10:58.802Z,98750.30
2022-10-03T04:13:26.926Z,98751.69
2022-10-03T04:16:48.636Z,98751.88
2022-10-03T04:19:44.093Z,98748.27
2022-10-03T04:22:35.314Z,98749.10
2022-10-03T04:25:23.731Z,98743.37
2022-10-03T04:28:08.156Z,98737.94
2022-10-03T04:30:55.541Z,98737.58
2022-10-03T04:33:25.826Z,98735.57
2022-10-03T04:36:09.033Z,98735.33
2022-10-03T04:38:48.912Z,98730.97
2022-10-03T04:41:23.657Z,98730.61
2022-10-03T04:44:12.197Z,98731.34
2022-10-03T04:46:53.144Z,98733.52
2022-10-03T04:49:36.060Z,98738.60
2022-10-03T04:52:16.965Z,98734.29
2022-10-03T04:55:07.049Z,98731.93
2022-10-03T04:58:04.718Z,98731.94
2022-10-03T05:00:54.828Z,98733.38
2022-10-03T05:03:43.752Z,98731.48
2022-10-03T05:06:41.447Z,98722.43
2022-10-03T05:09:45.134Z,98721.60
2022-10-03T05:12:41.917Z,98723.26
2022-10-03T05:15:34.501Z,98722.64
2022-10-03T05:18:02.661Z,98722.88
2022-10-03T05:21:00.976Z,98720.02
2022-10-03T05:24:03.563Z,98727.38
2022-10-03T05:26:45.406Z,98721.33
2022-10-03T05:29:52.542Z,98717.68
2022-10-03T05:32:26.171Z,98716.27
2022-10-03T05:35:19.284Z,98720.19
2022-10-03T05:38:00.567Z,98720.88
2022-10-03T05:40:34.590Z,98717.77
2022-10-03T05:43:27.347Z,98716.58
2022-10-03T05:46:14.917Z,98720.14
2022-10-03T05:49:37.043Z,98717.95
2022-10-03T05:52:34.686Z,98720.63
2022-10-03T05:55:08.579Z,98733.31
2022-10-03T05:58:19.987Z,98733.49
2022-10-03T06:01:07.404Z,98728.49
2022-10-03T06:03:55.458Z,98733.83
2022-10-03T06:06:44.239Z,98739.69
2022-10-03T06:09:15.570Z,98737.73
2022-10-03T06:11:52.430Z,98743.60
2022-10-03T06:14:30.305Z,98745.98
2022-10-03T06:17:16.786Z,98743.23
2022-10-03T06:20:23.892Z,98747.15
2022-10-03T06:23:00.437Z,98747.56
2022-10-03T06:26:19.014Z,98743.55
2022-10-03T06:28:52.878Z,98749.09
2022-10-03T06:31:51.942Z,98753.77
2022-10-03T06:34:26.406Z,98752.67
2022-10-03T06:37:03.601Z,98751.14
2022-10-03T06:39:44.616Z,98751.80
2022-10-03T06:42:32.374Z,98758.45
2022-10-03T06:45:10.026Z,98763.70
2022-10-03T06:47:56.721Z,98768.22
2022-10-03T06:50:47.223Z,98774.30
2022-10-03T06:54:00.407Z,98781.34
2022-10-03T06:56:48.986Z,98783.08
2022-10-03T06:59:24.055Z,98777.17
2022-10-03T07:02:17.274Z,98775.38
2022-10-03T07:04:45.547Z,98781.48
2022-10-03T07:07:51.418Z,98778.73
2022-10-03T07:10:25.425Z,98779.95
2022-10-03T07:13:20.324Z,98778.84
2022-10-03T07:16:34.302Z,98783.71
2022-10-03T07:19:50.390Z,98783.52
2022-10-03T07:22:56.279Z,98786.75
2022-10-03T07:26:15.475Z,98785.30
2022-10-03T07:28:46.446Z,98789.95
2022-10-03T07:31:40.937Z,98791.58
2022-10-03T07:34:46.215Z,98790.11
2022-10-03T07:37:40.243Z,98788.48
2022-10-03T07:40:45.473Z,98785.94
2022-10-03T07:43:38.312Z,98784.09
2022-10-03T07:46:44.192Z,98782.75
2022-10-03T07:49:43.672Z,98782.23
2022-10-03T07:52:22.659Z,98784.82
2022-10-03T07:55:19.496Z,98789.85
2022-10-03T07:58:25.479Z,98788.88
2022-10-03T08:00:56.335Z,98795.20
2022-10-03T08:03:36.916Z,98792.33
2022-10-03T08:06:34.305Z,98787.80
2022-10-03T08:09:41.424Z,98791.48
2022-10-03T08:12:43.159Z,98794.20
2022-10-03T08:15:27.263Z,98795.23
2022-10-03T08:18:29.765Z,98796.88
2022-10-03T08:21:03.642Z,98801.42
2022-10-03T08:23:47.287Z,98807.09
2022-10-03T08:26:23.143Z,98815.78
2022-10-03T08:29:02.646Z,98813.23
2022-10-03T08:31:37.304Z,98818.38
2022-10-03T08:34:18.546Z,98821.30
2022-10-03T08:37:17.738Z,98817.75
2022-10-03T08:40:17.446Z,98821.65
2022-10-03T08:43:03.871Z,98816.08
2022-10-03T08:45:52.087Z,98811.02
2022-10-03T08:48:32.233Z,98818.31
2022-10-03T08:51:16.546Z,98821.95
2022-10-03T08:54:24.819Z,98811.88
2022-10-03T08:57:26.404Z,98812.36
2022-10-03T09:00:19.517Z,98825.02
2022-10-03T09:03:42.751Z,98828.60
2022-10-03T09:06:35.191Z,98824.06
2022-10-03T09:09:24.931Z,98824.78
2022-10-03T09:12:08.137Z,98823.73
2022-10-03T09:15:06.975Z,98818.58
2022-10-03T09:17:57.570Z,98814.12
2022-10-03T09:21:07.254Z,98811.92
2022-10-03T09:24:01.264Z,98813.31
2022-10-03T09:26:51.066Z,98810.98
2022-10-03T09:29:44.591Z,98807.73
2022-10-03T09:32:18.947Z,98810.40
2022-10-03T09:35:00.326Z,98810.73
2022-10-03T09:37:59.072Z,98801.46
2022-10-03T09:40:58.004Z,98800.89
2022-10-03T09:44:03.950Z,98795.77
2022-10-03T09:47:15.418Z,98795.52
2022-10-03T09:50:02.152Z,98791.35
2022-10-03T09:53:02.696Z,98793.11
2022-10-03T09:56:05.058Z,98795.70
2022-10-03T09:58:45.651Z,98792.98
2022-10-03T10:01:31.535Z,98788.52
2022-10-03T10:04:50.529Z,98785.23
2022-10-03T10:07:58.537Z,98784.32
2022-10-03T10:10:29.744Z,98791.00
2022-10-03T10:13:25.724Z,98794.89
2022-10-03T10:16:35.159Z,98799.99
2022-10-03T10:19:22.409Z,98806.24
2022-10-03T10:21:53.252Z,98807.47
2022-10-03T10:24:30.717Z,98805.12
2022-10-03T10:27:26.717Z,98802.42
2022-10-03T10:30:31.423Z,98800.10
2022-10-03T10:33:19.520Z,98795.34
2022-10-03T10:36:02.479Z,98794.61
2022-10-03T10:38:39.746Z,98797.89
2022-10-03T10:41:25.966Z,98797.05
2022-10-03T10:44:19.230Z,98800.63
2022-10-03T10:47:06.489Z,98807.51
2022-10-03T10:49:36.626Z,98807.09
2022-10-03T10:52:14.034Z,98811.70
2022-10-03T10:55:06.755Z,98809.09
2022-10-03T10:57:41.090Z,98813.43
2022-10-03T11:00:40.194Z,98807.45
2022-10-03T11:03:46.164Z,98801.81
2022-10-03T11:06:32.727Z,98803.61
2022-10-03T11:09:22.472Z,98802.50
2022-10-03T11:11:51.503Z,98801.60
2022-10-03T11:14:24.640Z,98809.00
2022-10-03T11:17:26.959Z,98811.61
2022-10-03T11:20:14.197Z,98821.05
2022-10-03T11:23:07.520Z,98808.58
2022-10-03T11:26:03.380Z,98814.10
2022-10-03T11:28:50.039Z,98820.09
2022-10-03T11:31:55.900Z,98825.99
2022-10-03T11:34:51.981Z,98830.79
2022-10-03T11:37:40.393Z,98838.05
2022-10-03T11:40:22.111Z,98839.27
2022-10-03T11:43:21.372Z,98842.50
2022-10-03T11:45:54.580Z,98846.83
2022-10-03T11:48:35.212Z,98853.21
2022-10-03T11:51:16.129Z,98852.34
2022-10-03T11:54:13.293Z,98860.36
2022-10-03T11:57:02.043Z,98855.24
2022-10-03T12:00:20.405Z,98856.01
2022-10-03T12:03:02.828Z,98854.00
2022-10-03T12:05:49.976Z,98855.98
2022-10-03T12:08:56.554Z,98859.77
2022-10-03T12:11:37.131Z,98860.11
2022-10-03T12:14:24.068Z,98860.27
2022-10-03T12:17:12.541Z,98860.41
2022-10-03T12:19:56.049Z,98859.86
2022-10-03T12:22:42.709Z,98859.77
2022-10-03T12:25:21.493Z,98862.59
2022-10-03T12:27:55.743Z,98863.17
2022-10-03T12:30:25.779Z,98863.66
2022-10-03T12:33:14.865Z,98861.12
2022-10-03T12:36:10.026Z,98857.75
2022-10-03T12:38:41.646Z,98856.67
2022-10-03T12:41:51.945Z,98858.48
2022-10-03T12:44:39.926Z,98857.50
2022-10-03T12:47:51.185Z,98858.59
2022-10-03T12:50:37.358Z,98863.59
2022-10-03T12:53:17.792Z,98870.51
2022-10-03T12:56:08.418Z,98873.00
2022-10-03T12:59:03.506Z,98876.23
2022-10-03T13:02:12.599Z,98880.69
2022-10-03T13:05:13.189Z,98871.67
2022-10-03T13:08:07.533Z,98877.60
2022-10-03T13:10:43.787Z,98872.96
2022-10-03T13:13:21.539Z,98868.83
2022-10-03T13:16:07.055Z,98862.58
2022-10-03T13:18:54.407Z,98857.06
2022-10-03T13:21:46.529Z,98849.98
2022-10-03T13:24:40.840Z,98849.24
2022-10-03T13:27:16.357Z,98842.58
2022-10-03T13:29:49.065Z,98846.94
2022-10-03T13:32:30.730Z,98856.55
2022-10-03T13:35:26.817Z,98855.47
2022-10-03T13:38:28.581Z,98854.34
2022-10-03T13:41:25.584Z,98855.23
2022-10-03T13:44:10.213Z,98860.77
2022-10-03T13:47:23.394Z,98865.03
2022-10-03T13:49:56.918Z,98871.27
2022-10-03T13:52:51.616Z,98865.80
2022-10-03T13:55:22.625Z,98872.04
2022-10-03T13:58:19.544Z,98879.57
2022-10-03T14:01:13.896Z,98883.11
2022-10-03T14:04:07.014Z,98884.38
2022-10-03T14:06:51.547Z,98883.98
2022-10-03T14:09:47.505Z,98884.90
2022-10-03T14:12:56.527Z,98888.46
2022-10-03T14:15:25.005Z,98889.02
2022-10-03T14:18:14.586Z,98894.12
2022-10-03T14:21:08.932Z,98886.47
2022-10-03T14:24:07.752Z,98892.09
2022-10-03T14:27:08.824Z,98892.45
2022-10-03T14:30:26.491Z,98890.10
2022-10-03T14:33:31.844Z,98905.63
2022-10-03T14:36:08.945Z,98902.18
2022-10-03T14:39:36.728Z,98898.30
2022-10-03T14:42:26.734Z,98905.73
2022-10-03T14:45:20.819Z,98904.77
2022-10-03T14:47:54.045Z,98911.70
2022-10-03T14:50:29.127Z,98908.67
2022-10-03T14:53:07.169Z,98908.26
2022-10-03T14:56:06.941Z,98905.48
2022-10-03T14:58:54.620Z,98899.23
2022-10-03T15:01:29.001Z,98899.98
2022-10-03T15:04:10.358Z,98895.33
2022-10-03T15:06:44.646Z,98897.57
2022-10-03T15:09:20.890Z,98892.63
2022-10-03T15:12:00.673Z,98898.09
2022-10-03T15:14:33.375Z,98898.90
2022-10-03T15:17:07.395Z,98907.45
2022-10-03T15:19:44.407Z,98905.11
2022-10-03T15:22:39.958Z,98917.27
2022-10-03T15:25:19.811Z,98919.55
2022-10-03T15:27:54.133Z,98927.04
2022-10-03T15:30:31.439Z,98927.76
2022-10-03T15:33:29.660Z,98928.50
2022-10-03T15:36:05.960Z,98944.02
2022-10-03T15:38:39.119Z,98950.12
2022-10-03T15:41:21.969Z,98955.42
2022-10-03T15:43:51.130Z,98963.42
2022-10-03T15:46:46.512Z,98967.67
2022-10-03T15:49:32.819Z,98972.66
2022-10-03T15:52:17.583Z,98984.05
2022-10-03T15:54:50.838Z,98971.98
2022-10-03T15:57:26.712Z,98973.02
2022-10-03T16:00:03.068Z,98979.85
2022-10-03T16:02:54.062Z,98982.77
2022-10-03T16:05:25.809Z,98987.15
2022-10-03T16:08:13.640Z,98988.37
2022-10-03T16:11:18.059Z,98989.58
2022-10-03T16:14:13.268Z,98992.65
2022-10-03T16:17:31.040Z,98993.66
2022-10-03T16:20:30.671Z,98993.36
2022-10-03T16:23:24.179Z,98990.76
2022-10-03T16:26:04.810Z,98985.30
2022-10-03T16:28:40.748Z,98987.56
2022-10-03T16:31:20.810Z,98991.18
2022-10-03T16:34:06.951Z,98993.42
2022-10-03T16:36:48.701Z,99000.09
2022-10-03T16:39:24.598Z,99008.45
2022-10-03T16:41:55.759Z,99010.30
2022-10-03T16:44:45.538Z,99013.23
2022-10-03T16:47:15.671Z,99015.66
2022-10-03T16:50:14.305Z,99021.72
2022-10-03T16:52:47.249Z,99014.64
2022-10-03T16:55:18.594Z,99019.02
2022-10-03T16:58:15.946Z,99014.42
2022-10-03T17:01:25.815Z,99018.66
2022-10-03T17:03:55.300Z,99022.60
2022-10-03T17:06:31.614Z,99025.49
2022-10-03T17:09:04.694Z,99024.58
2022-10-03T17:11:38.035Z,99026.85
2022-10-03T17:14:09.571Z,99030.19
2022-10-03T17:16:47.930Z,99033.58
2022-10-03T17:19:20.189Z,99034.67
2022-10-03T17:21:54.986Z,99037.04
2022-10-03T17:24:41.710Z,99037.98
2022-10-03T17:27:24.639Z,99040.92
2022-10-03T17:30:19.616Z,99041.13
2022-10-03T17:32:56.927Z,99048.59
2022-10-03T17:35:49.158Z,99053.14
2022-10-03T17:38:55.392Z,99055.36
2022-10-03T17:41:44.317Z,99063.48
2022-10-03T17:44:34.233Z,99059.52
2022-10-03T17:47:03.306Z,99059.88
2022-10-03T17:49:47.915Z,99062.08
2022-10-03T17:52:24.067Z,99059.98
2022-10-03T17:55:07.063Z,99055.40
2022-10-03T17:58:06.482Z,99060.60
2022-10-03T18:00:58.869Z,99067.15
2022-10-03T18:03:33.614Z,99064.81
2022-10-03T18:06:35.213Z,99063.71
2022-10-03T18:09:11.198Z,99064.33
2022-10-03T18:11:43.075Z,99058.64
2022-10-03T18:14:39.109Z,99058.89
2022-10-03T18:17:14.460Z,99055.79
2022-10-03T18:19:53.741Z,99059.11
2022-10-03T18:22:43.578Z,99057.09
2022-10-03T18:26:02.382Z,99055.89
2022-10-03T18:29:16.369Z,99057.40
2022-10-03T18:31:53.477Z,99061.54
2022-10-03T18:34:28.257Z,99067.48
2022-10-03T18:36:59.286Z,99069.85
2022-10-03T18:39:32.356Z,99070.93
2022-10-03T18:42:02.422Z,99073.27
2022-10-03T18:44:34.070Z,99073.84
2022-10-03T18:47:44.186Z,99074.33
2022-10-03T18:50:27.009Z,99075.60
2022-10-03T18:53:28.170Z,99078.29
2022-10-03T18:56:01.795Z,99084.67
2022-10-03T18:58:36.865Z,99086.98
2022-10-03T19:01:07.223Z,99089.28
2022-10-03T19:03:43.909Z,99090.18
2022-10-03T19:06:25.279Z,99097.27
2022-10-03T19:08:58.418Z,99098.58
2022-10-03T19:11:34.599Z,99097.25
2022-10-03T19:14:18.179Z,99104.77
2022-10-03T19:17:05.043Z,99105.12
2022-10-03T19:19:56.677Z,99108.70
2022-10-03T19:22:40.508Z,99111.61
2022-10-03T19:25:22.051Z,99111.11
2022-10-03T19:28:06.541Z,99105.66
2022-10-03T19:30:37.274Z,99107.27
2022-10-03T19:33:07.399Z,99106.22
2022-10-03T19:35:43.371Z,99107.70
2022-10-03T19:38:36.681Z,99110.36
2022-10-03T19:41:08.328Z,99112.29
2022-10-03T19:43:44.136Z,99117.38
2022-10-03T19:46:15.345Z,99120.09
2022-10-03T19:49:22.377Z,99121.03
2022-10-03T19:51:54.029Z,99120.11
2022-10-03T19:54:35.098Z,99124.16
2022-10-03T19:57:05.935Z,99122.94
2022-10-03T19:59:46.205Z,99125.96
2022-10-03T20:02:14.879Z,99121.62
2022-10-03T20:04:50.878Z,99123.22
2022-10-03T20:07:32.689Z,99121.01
2022-10-03T20:10:30.260Z,99124.06
2022-10-03T20:13:03.882Z,99124.09
2022-10-03T20:15:44.151Z,99124.94
2022-10-03T20:18:20.912Z,99126.91
2022-10-03T20:20:55.775Z,99127.23
2022-10-03T20:23:28.171Z,99125.38
2022-10-03T20:26:10.288Z,99125.21
2022-10-03T20:28:49.586Z,99125.63
2022-10-03T20:31:26.518Z,99127.59
2022-10-03T20:33:58.627Z,99129.66
2022-10-03T20:36:31.624Z,99130.07
2022-10-03T20:39:11.852Z,99130.07
2022-10-03T20:41:43.116Z,99127.59
2022-10-03T20:45:05.285Z,99128.13
2022-10-03T20:47:39.750Z,99124.96
2022-10-03T20:50:28.952Z,99128.96
2022-10-03T20:53:02.384Z,99131.24
2022-10-03T20:55:38.686Z,99132.60
2022-10-03T20:58:19.221Z,99132.31
2022-10-03T21:00:52.515Z,99131.15
2022-10-03T21:03:53.828Z,99134.73
2022-10-03T21:06:29.160Z,99136.55
2022-10-03T21:09:01.503Z,99136.16
2022-10-03T21:11:33.074Z,99137.87
2022-10-03T21:14:30.342Z,99140.15
2022-10-03T21:16:59.941Z,99137.42
2022-10-03T21:19:34.533Z,99138.12
2022-10-03T21:22:07.743Z,99138.09
2022-10-03T21:24:50.780Z,99135.80
2022-10-03T21:27:21.702Z,99135.77
2022-10-03T21:29:54.869Z,99134.20
2022-10-03T21:32:51.018Z,99132.94
2022-10-03T21:35:32.620Z,99134.31
2022-10-03T21:38:24.359Z,99136.20
2022-10-03T21:41:01.541Z,99134.49
2022-10-03T21:43:44.947Z,99130.05
2022-10-03T21:46:36.654Z,99129.48
2022-10-03T21:49:25.370Z,99130.34
2022-10-03T21:52:07.906Z,99130.12
2022-10-03T21:54:58.338Z,99129.94
2022-10-03T21:57:52.792Z,99130.07
2022-10-03T22:00:28.548Z,99129.03
2022-10-03T22:03:17.644Z,99131.56
2022-10-03T22:05:56.369Z,99128.37
2022-10-03T22:08:26.317Z,99125.92
2022-10-03T22:11:13.178Z,99126.00
2022-10-03T22:14:12.929Z,99124.80
2022-10-03T22:16:46.807Z,99122.01
2022-10-03T22:19:23.277Z,99124.58
2022-10-03T22:22:21.013Z,99122.66
2022-10-03T22:25:28.386Z,99125.89
2022-10-03T22:28:21.173Z,99122.66
2022-10-03T22:31:05.215Z,99122.98
2022-10-03T22:34:08.654Z,99123.84
2022-10-03T22:36:39.372Z,99125.45
2022-10-03T22:39:13.505Z,99125.94
2022-10-03T22:41:45.958Z,99123.11
2022-10-03T22:44:17.190Z,99123.02
2022-10-03T22:46:50.932Z,99121.83
2022-10-03T22:49:24.710Z,99119.44
2022-10-03T22:51:56.010Z,99119.52
2022-10-03T22:54:35.649Z,99114.36
2022-10-03T22:57:09.816Z,99113.09
2022-10-03T23:00:06.751Z,99113.77
2022-10-03T23:02:50.140Z,99107.83
2022-10-03T23:05:44.534Z,99109.77
2022-10-03T23:08:37.939Z,99112.55
2022-10-03T23:11:25.789Z,99112.02
2022-10-03T23:14:01.437Z,99115.44
2022-10-03T23:16:29.702Z,99113.67
2022-10-03T23:19:13.232Z,99115.46
2022-10-03T23:21:50.026Z,99112.98
2022-10-03T23:24:27.181Z,99109.45
2022-10-03T23:27:12.771Z,99109.30
2022-10-03T23:29:41.029Z,99105.79
2022-10-03T23:32:11.076Z,99104.20
2022-10-03T23:34:44.475Z,99109.20
2022-10-03T23:37:13.434Z,99111.25
2022-10-03T23:39:44.695Z,99113.20
2022-10-03T23:42:37.971Z,99112.52
2022-10-03T23:45:15.115Z,99113.02
2022-10-03T23:47:57.413Z,99113.44
2022-10-03T23:50:39.936Z,99111.61
2022-10-03T23:53:28.926Z,99110.58
2022-10-03T23:56:00.305Z,99117.83
2022-10-03T23:58:32.854Z,99118.55
